createdAt,value
2023-03-14T00:00:17.595Z,0.65
2023-03-14T00:02:44.367Z,0.35
2023-03-14T00:05:11.194Z,0.35
2023-03-14T00:07:38.508Z,0.20
2023-03-14T00:10:06.580Z,0.30
2023-03-14T00:12:33.213Z,0.40
2023-03-14T00:15:01.092Z,0.30
2023-03-14T00:17:28.184Z,0.55
2023-03-14T00:19:54.903Z,0.47
2023-03-14T00:22:22.237Z,0.63
2023-03-14T00:24:48.980Z,0.55
2023-03-14T00:27:15.692Z,0.40
2023-03-14T00:29:43.692Z,0.47
2023-03-14T00:32:10.316Z,0.77
2023-03-14T00:34:36.916Z,0.13
2023-03-14T00:37:03.602Z,0.47
2023-03-14T00:39:30.242Z,0.30
2023-03-14T00:41:56.885Z,0.30
2023-03-14T00:44:23.478Z,0.47
2023-03-14T00:46:50.255Z,0.40
2023-03-14T00:49:17.142Z,0.40
2023-03-14T00:51:43.774Z,0.45
2023-03-14T00:54:10.381Z,0.20
2023-03-14T00:56:36.974Z,0.35
2023-03-14T00:59:03.552Z,0.30
2023-03-14T01:01:30.182Z,0.60
2023-03-14T01:03:56.872Z,0.50
2023-03-14T01:06:26.004Z,0.30
2023-03-14T01:08:52.640Z,0.25
2023-03-14T01:11:21.846Z,0.20
2023-03-14T01:13:48.595Z,0.40
2023-03-14T01:16:15.481Z,0.40
2023-03-14T01:18:44.417Z,0.47
2023-03-14T01:21:14.170Z,0.60
2023-03-14T01:23:40.952Z,0.30
2023-03-14T01:26:11.291Z,0.93
2023-03-14T01:28:38.127Z,0.47
2023-03-14T01:31:06.794Z,0.70
2023-03-14T01:33:33.456Z,0.45
2023-03-14T01:36:00.263Z,0.50
2023-03-14T01:38:26.968Z,0.40
2023-03-14T01:40:53.654Z,0.60
2023-03-14T01:43:20.835Z,0.50
2023-03-14T01:46:10.133Z,0.52
2023-03-14T01:48:43.206Z,2.83
2023-03-14T01:51:12.211Z,4.55
2023-03-14T01:53:38.850Z,2.70
2023-03-14T01:56:05.754Z,0.60
2023-03-14T01:58:33.319Z,0.50
2023-03-14T02:01:00.550Z,1.63
2023-03-14T02:03:27.266Z,1.55
2023-03-14T02:05:53.935Z,0.68
2023-03-14T02:08:21.343Z,0.60
2023-03-14T02:10:49.652Z,0.50
2023-03-14T02:13:17.552Z,0.30
2023-03-14T02:15:44.191Z,0.45
2023-03-14T02:18:10.841Z,0.32
2023-03-14T02:20:58.117Z,0.30
2023-03-14T02:23:32.389Z,0.47
2023-03-14T02:26:04.790Z,0.30
2023-03-14T02:28:31.380Z,0.30
2023-03-14T02:30:58.002Z,0.50
2023-03-14T02:33:24.782Z,0.35
2023-03-14T02:35:58.820Z,0.50
2023-03-14T02:38:42.542Z,0.40
2023-03-14T02:41:09.192Z,0.30
2023-03-14T02:43:35.835Z,0.30
2023-03-14T02:46:02.796Z,0.30
2023-03-14T02:48:31.336Z,0.40
2023-03-14T02:50:58.949Z,0.50
2023-03-14T02:53:28.800Z,0.30
2023-03-14T02:55:55.432Z,0.57
2023-03-14T02:58:22.292Z,0.25
2023-03-14T03:00:48.909Z,0.50
2023-03-14T03:03:15.663Z,0.20
2023-03-14T03:05:43.552Z,0.40
2023-03-14T03:08:10.390Z,0.60
2023-03-14T03:10:37.121Z,0.60
2023-03-14T03:13:03.812Z,0.70
2023-03-14T03:15:30.667Z,0.47
2023-03-14T03:17:57.589Z,0.50
2023-03-14T03:20:24.244Z,0.40
2023-03-14T03:22:51.063Z,0.82
2023-03-14T03:25:18.085Z,0.40
2023-03-14T03:27:44.752Z,0.60
2023-03-14T03:30:11.776Z,0.50
2023-03-14T03:32:38.393Z,0.40
2023-03-14T03:35:05.737Z,0.35
2023-03-14T03:37:32.886Z,0.60
2023-03-14T03:39:59.664Z,0.32
2023-03-14T03:42:27.713Z,0.30
2023-03-14T03:44:54.405Z,0.45
2023-03-14T03:47:21.065Z,0.38
2023-03-14T03:49:47.727Z,0.30
2023-03-14T03:52:14.366Z,0.57
2023-03-14T03:54:41.146Z,0.30
2023-03-14T03:57:07.803Z,0.30
2023-03-14T03:59:34.464Z,0.30
2023-03-14T04:02:01.199Z,0.35
2023-03-14T04:04:27.893Z,0.20
2023-03-14T04:06:54.686Z,0.20
2023-03-14T04:09:21.289Z,0.20
2023-03-14T04:11:47.954Z,0.20
2023-03-14T04:14:14.721Z,0.20
2023-03-14T04:16:41.355Z,0.40
2023-03-14T04:19:07.963Z,0.17
2023-03-14T04:21:34.608Z,0.10
2023-03-14T04:24:01.191Z,0.25
2023-03-14T04:26:27.799Z,0.20
2023-03-14T04:28:54.376Z,0.28
2023-03-14T04:31:21.978Z,4.60
2023-03-14T04:33:48.652Z,6.00
2023-03-14T04:36:15.445Z,6.15
2023-03-14T04:38:42.013Z,4.45
2023-03-14T04:41:08.740Z,5.03
2023-03-14T04:43:35.320Z,7.63
2023-03-14T04:46:02.027Z,5.05
2023-03-14T04:48:28.789Z,7.15
2023-03-14T04:50:55.513Z,4.05
2023-03-14T04:53:22.166Z,1.70
2023-03-14T04:55:50.897Z,1.08
2023-03-14T04:58:17.619Z,0.70
2023-03-14T05:00:44.255Z,0.40
2023-03-14T05:03:10.959Z,0.30
2023-03-14T05:05:37.660Z,0.40
2023-03-14T05:08:04.348Z,0.30
2023-03-14T05:10:30.988Z,0.20
2023-03-14T05:12:57.671Z,0.35
2023-03-14T05:15:24.424Z,0.30
2023-03-14T05:17:51.158Z,0.30
2023-03-14T05:20:17.886Z,0.22
2023-03-14T05:22:44.494Z,0.20
2023-03-14T05:25:11.289Z,0.38
2023-03-14T05:27:37.956Z,0.20
2023-03-14T05:30:06.229Z,0.80
2023-03-14T05:32:33.010Z,0.80
2023-03-14T05:35:00.389Z,0.35
2023-03-14T05:37:27.288Z,0.50
2023-03-14T05:39:53.873Z,0.45
2023-03-14T05:42:20.725Z,0.43
2023-03-14T05:44:47.335Z,0.47
2023-03-14T05:47:13.980Z,1.42
2023-03-14T05:49:40.699Z,0.50
2023-03-14T05:52:07.509Z,2.28
2023-03-14T05:54:34.198Z,1.67
2023-03-14T05:57:00.901Z,1.98
2023-03-14T05:59:27.592Z,0.80
2023-03-14T06:01:54.192Z,0.40
2023-03-14T06:04:20.814Z,0.40
2023-03-14T06:06:47.528Z,0.50
2023-03-14T06:09:14.196Z,0.40
2023-03-14T06:11:40.806Z,0.40
2023-03-14T06:14:07.527Z,0.43
2023-03-14T06:16:34.164Z,0.60
2023-03-14T06:19:00.887Z,0.30
2023-03-14T06:21:27.569Z,0.30
2023-03-14T06:23:54.441Z,0.55
2023-03-14T06:26:21.172Z,0.43
2023-03-14T06:28:47.807Z,0.30
2023-03-14T06:31:14.503Z,0.20
2023-03-14T06:33:41.203Z,0.52
2023-03-14T06:36:08.447Z,0.30
2023-03-14T06:38:35.144Z,0.50
2023-03-14T06:41:08.915Z,0.40
2023-03-14T06:43:35.540Z,0.55
2023-03-14T06:46:02.240Z,0.40
2023-03-14T06:48:28.891Z,0.30
2023-03-14T06:50:55.533Z,0.30
2023-03-14T06:53:22.288Z,0.52
2023-03-14T06:55:48.927Z,0.30
2023-03-14T06:58:15.689Z,0.75
2023-03-14T07:00:42.394Z,0.60
2023-03-14T07:03:11.089Z,0.60
2023-03-14T07:05:41.501Z,0.65
2023-03-14T07:08:09.264Z,0.52
2023-03-14T07:10:36.025Z,0.82
2023-03-14T07:13:02.857Z,0.95
2023-03-14T07:15:29.637Z,0.63
2023-03-14T07:17:56.312Z,0.52
2023-03-14T07:20:23.144Z,0.50
2023-03-14T07:22:50.458Z,1.95
2023-03-14T07:25:17.584Z,1.40
2023-03-14T07:27:45.659Z,0.63
2023-03-14T07:30:12.887Z,0.80
2023-03-14T07:32:39.587Z,0.40
2023-03-14T07:35:06.970Z,0.40
2023-03-14T07:37:33.565Z,0.20
2023-03-14T07:40:00.186Z,0.73
2023-03-14T07:42:26.763Z,0.20
2023-03-14T07:44:53.525Z,0.50
2023-03-14T07:47:20.859Z,0.98
2023-03-14T07:49:47.554Z,0.47
2023-03-14T07:52:14.182Z,0.45
2023-03-14T07:54:41.315Z,0.50
2023-03-14T07:57:07.924Z,0.25
2023-03-14T07:59:34.762Z,0.40
2023-03-14T08:02:01.384Z,0.90
2023-03-14T08:04:28.341Z,0.82
2023-03-14T08:06:55.363Z,1.60
2023-03-14T08:09:21.967Z,0.63
2023-03-14T08:11:48.675Z,0.50
2023-03-14T08:14:15.531Z,0.85
2023-03-14T08:16:42.208Z,0.40
2023-03-14T08:19:09.495Z,0.63
2023-03-14T08:21:36.215Z,6.10
2023-03-14T08:24:02.978Z,7.10
2023-03-14T08:26:29.882Z,5.85
2023-03-14T08:28:56.542Z,5.57
2023-03-14T08:31:23.466Z,5.30
2023-03-14T08:33:52.955Z,6.75
2023-03-14T08:36:23.152Z,6.65
2023-03-14T08:38:50.719Z,6.30
2023-03-14T08:41:17.459Z,6.20
2023-03-14T08:43:44.146Z,6.10
2023-03-14T08:46:10.776Z,7.03
2023-03-14T08:48:37.447Z,4.60
2023-03-14T08:51:07.011Z,6.97
2023-03-14T08:53:33.856Z,5.60
2023-03-14T08:56:00.603Z,6.10
2023-03-14T08:58:27.383Z,6.32
2023-03-14T09:00:54.367Z,5.10
2023-03-14T09:03:21.535Z,6.38
2023-03-14T09:05:48.232Z,5.35
2023-03-14T09:08:23.410Z,5.85
2023-03-14T09:10:50.058Z,5.97
2023-03-14T09:13:16.901Z,5.20
2023-03-14T09:15:43.644Z,4.38
2023-03-14T09:18:10.491Z,4.30
2023-03-14T09:20:37.195Z,4.15
2023-03-14T09:23:03.900Z,3.58
2023-03-14T09:25:33.968Z,3.50
2023-03-14T09:28:00.681Z,3.60
2023-03-14T09:30:27.430Z,4.30
2023-03-14T09:32:54.357Z,3.95
2023-03-14T09:35:21.035Z,3.63
2023-03-14T09:37:50.521Z,4.38
2023-03-14T09:40:18.447Z,5.20
2023-03-14T09:42:45.185Z,4.10
2023-03-14T09:45:26.296Z,3.70
2023-03-14T09:47:59.587Z,3.42
2023-03-14T09:50:27.340Z,4.00
2023-03-14T09:52:58.358Z,3.95
2023-03-14T09:55:25.126Z,4.35
2023-03-14T09:57:55.611Z,4.03
2023-03-14T10:00:24.155Z,4.28
2023-03-14T10:02:57.798Z,4.25
2023-03-14T10:05:25.801Z,4.18
2023-03-14T10:07:52.457Z,4.20
2023-03-14T10:10:24.059Z,4.05
2023-03-14T10:13:00.606Z,3.80
2023-03-14T10:15:31.091Z,3.95
2023-03-14T10:18:01.488Z,4.28
2023-03-14T10:20:34.995Z,3.25
2023-03-14T10:23:05.238Z,2.63
2023-03-14T10:25:34.918Z,2.63
2023-03-14T10:28:27.023Z,2.08
2023-03-14T10:30:53.857Z,2.08
2023-03-14T10:33:23.442Z,1.90
2023-03-14T10:35:59.969Z,1.90
2023-03-14T10:38:28.806Z,2.40
2023-03-14T10:40:56.303Z,2.47
2023-03-14T10:43:28.274Z,2.10
2023-03-14T10:45:59.023Z,2.03
2023-03-14T10:48:43.040Z,2.50
2023-03-14T10:51:19.130Z,2.33
2023-03-14T10:53:49.036Z,2.28
2023-03-14T10:56:18.769Z,1.73
2023-03-14T10:58:47.125Z,2.13
2023-03-14T11:04:01.673Z,1.80
2023-03-14T11:09:19.707Z,2.30
2023-03-14T11:11:47.711Z,3.00
2023-03-14T11:14:36.081Z,2.00
2023-03-14T11:17:13.654Z,1.73
2023-03-14T11:19:54.411Z,1.60
2023-03-14T11:22:28.338Z,1.50
2023-03-14T11:25:01.716Z,1.88
2023-03-14T11:27:52.293Z,2.05
2023-03-14T11:33:16.307Z,2.00
2023-03-14T11:36:11.794Z,1.45
2023-03-14T11:38:49.266Z,1.65
2023-03-14T11:41:26.454Z,1.30
2023-03-14T11:43:56.562Z,1.27
2023-03-14T11:46:34.021Z,1.83
2023-03-14T11:49:23.221Z,1.40
2023-03-14T11:51:52.682Z,1.60
2023-03-14T11:54:50.613Z,2.00
2023-03-14T11:57:18.726Z,1.63
2023-03-14T12:00:13.320Z,1.60
2023-03-14T12:08:30.332Z,2.08
2023-03-14T12:11:03.055Z,1.63
2023-03-14T12:16:00.134Z,1.70
2023-03-14T12:18:31.003Z,1.60
2023-03-14T12:21:02.437Z,1.50
2023-03-14T12:23:35.166Z,1.98
2023-03-14T12:28:44.927Z,1.83
2023-03-14T12:31:34.273Z,1.95
2023-03-14T12:34:20.388Z,1.63
2023-03-14T12:36:54.649Z,1.70
2023-03-14T12:39:47.034Z,1.42
2023-03-14T12:42:25.507Z,1.90
2023-03-14T12:44:54.110Z,1.80
2023-03-14T12:47:26.341Z,1.20
2023-03-14T12:49:56.234Z,1.27
2023-03-14T12:52:44.321Z,1.98
2023-03-14T12:55:16.163Z,3.25
2023-03-14T12:57:49.679Z,1.90
2023-03-14T13:00:20.106Z,2.13
2023-03-14T13:02:46.773Z,1.80
2023-03-14T13:05:16.027Z,1.95
2023-03-14T13:13:23.323Z,2.42
2023-03-14T13:15:52.794Z,1.63
2023-03-14T13:18:40.837Z,1.67
2023-03-14T13:21:23.930Z,1.70
2023-03-14T13:24:08.517Z,1.75
2023-03-14T13:26:43.564Z,1.85
2023-03-14T13:29:26.902Z,1.80
2023-03-14T13:31:57.524Z,1.67
2023-03-14T13:34:26.648Z,1.80
2023-03-14T13:36:54.028Z,1.63
2023-03-14T13:39:25.473Z,2.25
2023-03-14T13:41:52.804Z,1.75
2023-03-14T13:44:25.885Z,1.42
2023-03-14T13:46:52.500Z,1.88
2023-03-14T13:49:23.519Z,1.60
2023-03-14T13:51:50.154Z,1.90
2023-03-14T13:54:18.694Z,1.80
2023-03-14T13:56:45.451Z,3.17
2023-03-14T13:59:28.745Z,4.90
2023-03-14T14:01:55.935Z,6.78
2023-03-14T14:04:25.108Z,5.43
2023-03-14T14:06:55.794Z,6.75
2023-03-14T14:09:28.167Z,8.10
2023-03-14T14:12:14.771Z,0.35
2023-03-14T14:15:12.457Z,0.20
2023-03-14T14:17:41.638Z,0.57
2023-03-14T14:20:12.409Z,0.22
2023-03-14T14:22:39.026Z,0.43
2023-03-14T14:25:06.820Z,0.20
2023-03-14T14:27:38.664Z,0.50
2023-03-14T14:30:22.921Z,0.40
2023-03-14T14:32:50.949Z,0.40
2023-03-14T14:35:27.029Z,1.48
2023-03-14T14:37:53.656Z,1.50
2023-03-14T14:40:23.402Z,5.15
2023-03-14T14:42:50.559Z,1.00
2023-03-14T14:45:19.949Z,3.15
2023-03-14T14:47:51.338Z,0.68
2023-03-14T14:50:28.875Z,2.58
2023-03-14T14:53:00.659Z,1.10
2023-03-14T14:55:33.896Z,0.65
2023-03-14T14:58:13.375Z,0.95
2023-03-14T15:00:40.884Z,1.20
2023-03-14T15:03:13.586Z,1.92
2023-03-14T15:05:40.240Z,0.30
2023-03-14T15:08:11.205Z,0.93
2023-03-14T15:10:38.081Z,2.55
2023-03-14T15:13:04.897Z,5.50
2023-03-14T15:15:31.549Z,6.55
2023-03-14T15:17:58.174Z,3.75
2023-03-14T15:20:24.988Z,3.92
2023-03-14T15:22:51.665Z,1.75
2023-03-14T15:25:39.954Z,1.05
2023-03-14T15:28:06.224Z,2.92
2023-03-14T15:30:32.917Z,0.98
2023-03-14T15:32:59.783Z,2.00
2023-03-14T15:35:26.490Z,1.10
2023-03-14T15:37:53.161Z,1.42
2023-03-14T15:40:19.793Z,1.02
2023-03-14T15:42:46.615Z,1.38
2023-03-14T15:45:13.197Z,2.03
2023-03-14T15:47:40.038Z,2.78
2023-03-14T15:50:10.528Z,0.57
2023-03-14T15:52:37.408Z,1.33
2023-03-14T15:55:04.187Z,1.73
2023-03-14T15:57:30.889Z,1.40
2023-03-14T15:59:57.651Z,5.65
2023-03-14T16:02:24.353Z,1.70
2023-03-14T16:04:51.192Z,1.50
2023-03-14T16:07:17.977Z,1.45
2023-03-14T16:09:44.913Z,5.22
2023-03-14T16:12:11.564Z,4.20
2023-03-14T16:14:43.563Z,4.07
2023-03-14T16:17:13.359Z,4.50
2023-03-14T16:19:39.981Z,5.50
2023-03-14T16:22:06.988Z,6.13
2023-03-14T16:24:33.971Z,7.20
2023-03-14T16:27:00.727Z,1.50
2023-03-14T16:29:27.359Z,1.50
2023-03-14T16:31:54.163Z,1.58
2023-03-14T16:34:20.826Z,1.50
2023-03-14T16:36:48.115Z,0.98
2023-03-14T16:39:14.894Z,0.90
2023-03-14T16:41:42.117Z,0.88
2023-03-14T16:44:08.879Z,0.98
2023-03-14T16:46:36.371Z,1.27
2023-03-14T16:49:03.452Z,1.92
2023-03-14T16:51:30.113Z,1.10
2023-03-14T16:53:56.799Z,0.70
2023-03-14T16:56:23.515Z,1.15
2023-03-14T16:58:50.577Z,1.63
2023-03-14T17:01:18.731Z,0.90
2023-03-14T17:03:48.697Z,1.23
2023-03-14T17:06:18.720Z,1.30
2023-03-14T17:08:45.376Z,0.88
2023-03-14T17:11:12.029Z,1.25
2023-03-14T17:13:38.777Z,1.02
2023-03-14T17:16:05.690Z,1.63
2023-03-14T17:18:32.384Z,1.00
2023-03-14T17:20:59.357Z,1.05
2023-03-14T17:23:26.710Z,1.35
2023-03-14T17:25:53.374Z,1.55
2023-03-14T17:28:21.989Z,1.00
2023-03-14T17:30:48.755Z,1.00
2023-03-14T17:33:15.410Z,1.33
2023-03-14T17:35:43.948Z,1.17
2023-03-14T17:38:10.694Z,0.98
2023-03-14T17:40:37.359Z,1.52
2023-03-14T17:43:04.044Z,1.20
2023-03-14T17:45:30.715Z,1.05
2023-03-14T17:47:57.351Z,0.82
2023-03-14T17:50:24.008Z,0.90
2023-03-14T17:52:50.587Z,1.23
2023-03-14T17:55:17.236Z,1.20
2023-03-14T17:57:44.921Z,0.93
2023-03-14T18:00:13.000Z,0.90
2023-03-14T18:02:41.605Z,1.00
2023-03-14T18:05:08.718Z,1.75
2023-03-14T18:07:35.734Z,1.15
2023-03-14T18:10:03.126Z,1.42
2023-03-14T18:12:29.900Z,1.70
2023-03-14T18:14:56.594Z,1.55
2023-03-14T18:17:23.312Z,1.02
2023-03-14T18:19:49.960Z,1.02
2023-03-14T18:22:16.630Z,1.10
2023-03-14T18:24:43.252Z,1.40
2023-03-14T18:27:09.941Z,2.65
2023-03-14T18:29:36.839Z,2.30
2023-03-14T18:32:03.492Z,2.67
2023-03-14T18:34:33.105Z,3.53
2023-03-14T18:36:59.894Z,2.47
2023-03-14T18:39:26.691Z,2.97
2023-03-14T18:41:53.409Z,2.97
2023-03-14T18:44:20.081Z,2.45
2023-03-14T18:46:46.842Z,3.22
2023-03-14T18:49:13.957Z,3.00
2023-03-14T18:51:40.687Z,3.67
2023-03-14T18:54:09.877Z,3.00
2023-03-14T18:56:37.381Z,2.72
2023-03-14T18:59:07.086Z,2.40
2023-03-14T19:01:34.238Z,2.83
2023-03-14T19:04:01.638Z,2.10
2023-03-14T19:06:29.274Z,3.08
2023-03-14T19:08:55.909Z,3.42
2023-03-14T19:11:22.502Z,3.05
2023-03-14T19:13:49.688Z,3.08
2023-03-14T19:16:16.746Z,2.88
2023-03-14T19:18:43.521Z,2.55
2023-03-14T19:21:12.658Z,8.20
2023-03-14T19:23:41.112Z,2.80
2023-03-14T19:26:09.311Z,2.45
2023-03-14T19:28:36.092Z,1.95
2023-03-14T19:31:03.358Z,2.40
2023-03-14T19:33:30.662Z,1.70
2023-03-14T19:35:57.564Z,2.10
2023-03-14T19:38:24.284Z,1.75
2023-03-14T19:40:53.316Z,2.15
2023-03-14T19:43:19.972Z,1.70
2023-03-14T19:45:46.600Z,1.52
2023-03-14T19:48:13.278Z,1.48
2023-03-14T19:50:40.234Z,1.73
2023-03-14T19:53:09.901Z,1.60
2023-03-14T19:55:37.460Z,1.55
2023-03-14T19:58:04.181Z,1.63
2023-03-14T20:00:30.829Z,2.35
2023-03-14T20:02:57.512Z,1.30
2023-03-14T20:05:24.440Z,1.50
2023-03-14T20:07:51.642Z,1.55
2023-03-14T20:10:19.741Z,1.42
2023-03-14T20:12:46.449Z,1.23
2023-03-14T20:15:18.205Z,1.73
2023-03-14T20:17:46.108Z,1.77
2023-03-14T20:20:13.279Z,2.13
2023-03-14T20:22:40.705Z,1.60
2023-03-14T20:25:08.871Z,1.70
2023-03-14T20:27:35.568Z,1.27
2023-03-14T20:30:03.039Z,1.20
2023-03-14T20:32:30.252Z,1.27
2023-03-14T20:34:57.344Z,1.52
2023-03-14T20:37:24.043Z,1.27
2023-03-14T20:39:50.914Z,1.63
2023-03-14T20:42:18.868Z,1.60
2023-03-14T20:44:45.819Z,1.23
2023-03-14T20:47:12.587Z,1.45
2023-03-14T20:49:39.247Z,1.60
2023-03-14T20:52:06.103Z,2.03
2023-03-14T20:54:32.966Z,11.32
2023-03-14T20:56:59.622Z,1.48
2023-03-14T20:59:28.102Z,1.35
2023-03-14T21:01:55.709Z,1.85
2023-03-14T21:04:22.511Z,1.50
2023-03-14T21:06:49.180Z,1.83
2023-03-14T21:09:15.833Z,1.30
2023-03-14T21:11:47.277Z,1.73
2023-03-14T21:14:14.053Z,1.38
2023-03-14T21:16:41.794Z,2.67
2023-03-14T21:19:08.446Z,1.88
2023-03-14T21:21:35.117Z,1.70
2023-03-14T21:24:02.482Z,1.63
2023-03-14T21:26:29.097Z,2.72
2023-03-14T21:28:55.927Z,1.70
2023-03-14T21:31:22.737Z,1.77
2023-03-14T21:33:49.438Z,2.08
2023-03-14T21:36:16.241Z,2.08
2023-03-14T21:38:42.974Z,1.70
2023-03-14T21:41:09.677Z,1.60
2023-03-14T21:43:36.376Z,1.85
2023-03-14T21:46:03.064Z,1.73
2023-03-14T21:48:29.813Z,1.60
2023-03-14T21:50:56.427Z,1.58
2023-03-14T21:53:30.364Z,2.05
2023-03-14T21:55:58.304Z,1.42
2023-03-14T21:58:25.135Z,1.50
2023-03-14T22:00:51.979Z,1.40
2023-03-14T22:03:19.717Z,1.80
2023-03-14T22:05:46.859Z,1.52
2023-03-14T22:08:14.416Z,4.90
2023-03-14T22:10:49.872Z,5.97
2023-03-14T22:13:16.779Z,5.13
2023-03-14T22:15:45.915Z,5.18
2023-03-14T22:18:13.228Z,4.20
2023-03-14T22:20:40.455Z,3.22
2023-03-14T22:23:07.127Z,1.30
2023-03-14T22:25:33.961Z,2.10
2023-03-14T22:28:00.680Z,1.85
2023-03-14T22:30:27.331Z,1.35
2023-03-14T22:32:54.234Z,1.80
2023-03-14T22:35:20.962Z,1.80
2023-03-14T22:37:47.576Z,1.60
2023-03-14T22:40:14.427Z,1.58
2023-03-14T22:42:41.160Z,1.48
2023-03-14T22:45:08.304Z,1.30
2023-03-14T22:47:35.033Z,1.20
2023-03-14T22:50:02.622Z,1.92
2023-03-14T22:52:31.921Z,1.33
2023-03-14T22:54:58.913Z,1.83
2023-03-14T22:57:25.867Z,1.50
2023-03-14T22:59:52.705Z,1.80
2023-03-14T23:02:19.486Z,1.48
2023-03-14T23:04:46.216Z,1.42
2023-03-14T23:07:12.950Z,1.80
2023-03-14T23:09:40.092Z,1.20
2023-03-14T23:12:07.224Z,1.70
2023-03-14T23:14:33.833Z,1.50
2023-03-14T23:17:00.611Z,1.52
2023-03-14T23:19:29.044Z,1.17
2023-03-14T23:21:55.846Z,1.33
2023-03-14T23:24:22.710Z,1.17
2023-03-14T23:26:49.553Z,1.60
2023-03-14T23:29:16.260Z,1.30
2023-03-14T23:31:42.997Z,0.98
2023-03-14T23:34:09.805Z,1.67
2023-03-14T23:36:37.428Z,1.20
2023-03-14T23:39:05.412Z,1.30
2023-03-14T23:41:32.562Z,0.95
2023-03-14T23:44:01.771Z,1.10
2023-03-14T23:46:28.917Z,1.05
2023-03-14T23:48:55.671Z,1.10
2023-03-14T23:51:23.588Z,1.60
2023-03-14T23:53:50.337Z,1.52
2023-03-14T23:56:17.798Z,1.40
2023-03-14T23:58:44.578Z,1.17
